Time;durP1;ratioP1;P1;durP2;ratioP2;P2;SDS_P1;SDS_P2;PMS_P1;PMS_P2;Temp;Humidity;BMP_temperature;BMP_pressure;BME280_temperature;BME280_humidity;BME280_pressure;Samples;Min_cycle;Max_cycle;Signal;HPM_P1;HPM_P2
2021/12/25 10:58:29;;;;;;;4.38;1.40;;;;;;;4.18;84.23;97003.47;6014940;23;20021;-50
2021/12/25 11:00:56;;;;;;;3.30;1.45;;;;;;;4.39;83.06;96994.34;4973477;28;20175;-52
2021/12/25 11:03:36;;;;;;;4.72;1.73;;;;;;;4.10;84.31;96997.94;4964869;28;20035;-52
2021/12/25 11:06:06;;;;;;;4.15;1.70;;;;;;;3.89;84.46;96993.13;4956578;29;20086;-53
2021/12/25 11:08:32;;;;;;;4.35;1.42;;;;;;;3.85;84.33;96996.00;4967689;28;20042;-54
2021/12/25 11:11:00;;;;;;;4.30;1.67;;;;;;;4.03;84.50;96987.94;4974835;28;20726;-51
2021/12/25 11:13:26;;;;;;;2.75;1.23;;;;;;;4.11;82.86;96997.00;4974048;28;20069;-51
2021/12/25 11:15:56;;;;;;;4.10;1.50;;;;;;;4.03;82.38;96990.53;4974874;28;20061;-52
2021/12/25 11:18:22;;;;;;;3.95;1.48;;;;;;;3.98;83.14;97010.72;4974294;28;20031;-49
2021/12/25 11:20:48;;;;;;;5.53;2.10;;;;;;;3.92;82.54;97005.94;4976683;28;20601;-51
2021/12/25 11:23:14;;;;;;;5.13;1.98;;;;;;;3.73;83.45;97007.94;4977315;28;20030;-50
2021/12/25 11:25:40;;;;;;;5.15;1.80;;;;;;;3.94;83.69;97004.06;4978508;28;20106;-50
2021/12/25 11:28:07;;;;;;;2.60;1.30;;;;;;;3.69;83.87;97003.88;4976289;28;20031;-51
2021/12/25 11:30:33;;;;;;;4.13;1.45;;;;;;;3.57;84.02;97011.44;4959718;28;20035;-53
2021/12/25 11:32:59;;;;;;;3.53;1.50;;;;;;;3.67;84.61;97005.72;4975724;28;20106;-50
2021/12/25 11:35:24;;;;;;;2.30;1.20;;;;;;;3.82;83.09;97002.22;4975850;28;20031;-51
2021/12/25 11:37:50;;;;;;;2.97;1.50;;;;;;;3.70;82.58;97010.72;4977033;28;20077;-52
2021/12/25 11:40:18;;;;;;;3.33;1.40;;;;;;;3.73;82.15;97007.94;4974550;28;20038;-53
2021/12/25 11:42:48;;;;;;;2.72;1.30;;;;;;;3.70;81.70;97006.38;4976062;28;20054;-53
2021/12/25 11:45:18;;;;;;;2.97;1.50;;;;;;;3.75;83.10;97000.91;4974568;28;20762;-52
2021/12/25 11:47:48;;;;;;;3.75;1.55;;;;;;;3.88;82.06;96999.22;4977796;28;20533;-51
2021/12/25 11:50:22;;;;;;;4.82;1.70;;;;;;;3.88;81.81;97004.41;4976372;28;20055;-48
2021/12/25 11:53:24;;;;;;;2.38;1.27;;;;;;;3.76;81.97;97005.19;4975531;28;20396;-51
2021/12/25 11:58:52;;;;;;;2.47;1.27;;;;;;;3.72;82.12;97008.88;4974007;28;20034;-52
2021/12/25 12:01:27;;;;;;;2.45;1.17;;;;;;;3.65;81.99;97007.56;4954985;28;20031;-52
2021/12/25 12:04:00;;;;;;;3.00;1.35;;;;;;;3.70;82.07;97018.50;4953841;28;20070;-53
2021/12/25 12:06:44;;;;;;;2.92;1.30;;;;;;;3.59;83.01;97016.56;4954763;28;20027;-53
2021/12/25 12:09:13;;;;;;;3.47;1.42;;;;;;;3.63;81.76;97010.25;4955483;28;20082;-49
2021/12/25 12:11:40;;;;;;;3.03;1.30;;;;;;;3.80;80.98;97011.84;4974346;28;20038;-49
2021/12/25 12:14:11;;;;;;;3.40;1.75;;;;;;;3.80;81.34;97017.03;4975218;28;20019;-53
2021/12/25 12:16:38;;;;;;;2.72;1.17;;;;;;;3.53;83.05;97009.97;4977340;28;20358;-50
2021/12/25 12:19:04;;;;;;;4.38;1.65;;;;;;;3.43;83.38;97016.63;4976726;28;20410;-48
2021/12/25 12:21:35;;;;;;;2.47;1.30;;;;;;;3.57;83.36;97016.63;4976076;28;20041;-47
2021/12/25 12:24:51;;;;;;;3.75;1.45;;;;;;;3.72;81.95;97020.09;4973358;28;20817;-48
2021/12/25 12:27:10;;;;;;;3.15;1.30;;;;;;;3.41;82.64;97026.25;4959283;28;20521;-50
2021/12/25 12:29:38;;;;;;;2.60;1.20;;;;;;;3.60;82.39;97012.19;4972230;28;20035;-48
2021/12/25 12:32:27;;;;;;;3.42;1.70;;;;;;;3.55;83.34;97017.66;4972209;28;20045;-53
2021/12/25 12:34:53;;;;;;;3.85;1.60;;;;;;;3.63;82.67;97019.81;4973235;28;20517;-52
2021/12/25 12:37:19;;;;;;;3.08;1.60;;;;;;;3.77;81.67;97025.81;4973630;28;20030;-53
2021/12/25 12:39:53;;;;;;;5.00;1.85;;;;;;;3.52;83.03;97036.00;4973124;28;20114;-53
2021/12/25 12:42:20;;;;;;;4.05;1.65;;;;;;;3.55;82.49;97044.44;4973066;28;20046;-48
2021/12/25 12:44:48;;;;;;;2.35;1.23;;;;;;;3.42;83.34;97048.66;4972887;28;20027;-51
2021/12/25 12:47:14;;;;;;;3.75;1.75;;;;;;;3.41;82.54;97044.41;4973142;28;20035;-51
2021/12/25 12:49:45;;;;;;;3.15;1.75;;;;;;;3.44;83.01;97041.63;4973197;28;20034;-49
2021/12/25 12:52:39;;;;;;;40.22;22.27;;;;;;;3.69;82.36;97050.56;4972931;28;20019;-52
2021/12/25 12:55:18;;;;;;;40.22;20.00;;;;;;;3.59;83.12;97033.88;4973099;28;20166;-50
2021/12/25 12:57:44;;;;;;;45.72;21.88;;;;;;;3.62;82.71;97046.66;4971738;28;20486;-53
2021/12/25 13:00:18;;;;;;;11.85;6.53;;;;;;;3.82;82.30;97051.50;4972495;28;20486;-51
2021/12/25 13:02:50;;;;;;;7.38;2.95;;;;;;;3.50;83.01;97067.19;4976666;28;20037;-51
2021/12/25 13:05:36;;;;;;;7.18;4.00;;;;;;;3.51;82.48;97068.88;4975859;28;20101;-52
2021/12/25 13:08:15;;;;;;;7.78;3.90;;;;;;;3.53;83.30;97067.00;4976332;28;20035;-53
2021/12/25 13:10:49;;;;;;;11.70;6.18;;;;;;;3.36;82.35;97068.91;4976875;28;20026;-50
2021/12/25 13:13:25;;;;;;;7.70;3.40;;;;;;;3.44;81.90;97077.06;4976351;28;20046;-49
2021/12/25 13:16:02;;;;;;;6.00;3.17;;;;;;;3.66;82.22;97080.09;4974846;28;20034;-48
2021/12/25 13:18:31;;;;;;;6.93;3.05;;;;;;;3.44;81.52;97083.13;4976290;28;20027;-52
2021/12/25 13:20:56;;;;;;;5.78;2.55;;;;;;;3.42;82.85;97079.75;4976634;28;20026;-49
2021/12/25 13:23:24;;;;;;;6.20;2.58;;;;;;;3.45;81.64;97079.59;4975393;28;20019;-51
2021/12/25 13:25:56;;;;;;;6.05;2.50;;;;;;;3.43;80.93;97086.59;4976111;28;20146;-50
2021/12/25 13:28:22;;;;;;;3.92;1.70;;;;;;;3.31;82.81;97093.34;4976275;28;20545;-51
2021/12/25 13:30:49;;;;;;;5.32;2.30;;;;;;;3.30;81.59;97086.50;4976476;28;20019;-50
2021/12/25 13:33:16;;;;;;;5.90;2.05;;;;;;;3.26;83.43;97086.75;4976010;28;20405;-50
2021/12/25 13:35:42;;;;;;;5.22;2.35;;;;;;;3.16;82.66;97093.38;4976126;28;20031;-53
2021/12/25 13:38:07;;;;;;;4.82;2.53;;;;;;;3.23;82.58;97094.69;4976289;28;20026;-49
2021/12/25 13:40:33;;;;;;;4.45;2.45;;;;;;;3.20;81.55;97102.63;4976227;28;20033;-46
2021/12/25 13:43:08;;;;;;;4.45;2.33;;;;;;;3.29;81.86;97109.88;4976242;28;20030;-51
2021/12/25 13:45:35;;;;;;;4.00;1.90;;;;;;;3.13;83.09;97114.25;4976198;28;20019;-51
2021/12/25 13:48:00;;;;;;;3.75;1.70;;;;;;;3.12;82.79;97120.38;4975910;28;20051;-53
2021/12/25 13:50:26;;;;;;;4.18;1.65;;;;;;;3.20;81.98;97123.34;4975044;28;20047;-49
2021/12/25 13:52:58;;;;;;;4.38;1.85;;;;;;;3.14;82.40;97126.31;4975896;28;20030;-48
2021/12/25 13:55:24;;;;;;;5.20;2.15;;;;;;;2.90;82.66;97124.16;4974838;28;20038;-50
2021/12/25 13:58:06;;;;;;;4.95;2.25;;;;;;;2.97;82.69;97122.91;4975375;28;20062;-50
2021/12/25 14:00:34;;;;;;;4.57;2.30;;;;;;;2.95;83.52;97122.13;4976314;28;20066;-50
2021/12/25 14:03:01;;;;;;;4.80;2.10;;;;;;;2.82;82.93;97134.09;4976006;28;20031;-49
2021/12/25 14:05:30;;;;;;;6.05;2.47;;;;;;;2.86;82.67;97140.78;4975944;28;20126;-49
2021/12/25 14:07:56;;;;;;;5.63;2.40;;;;;;;2.87;83.45;97139.88;4975593;28;20031;-49
2021/12/25 14:10:23;;;;;;;4.93;2.05;;;;;;;2.89;83.42;97143.22;4975554;28;20033;-49
2021/12/25 14:12:50;;;;;;;4.72;1.85;;;;;;;2.89;81.99;97138.03;4974596;28;20106;-51
2021/12/25 14:15:17;;;;;;;9.55;4.57;;;;;;;2.70;82.67;97135.59;4975282;28;20186;-51
2021/12/25 14:17:43;;;;;;;11.10;6.20;;;;;;;2.84;82.62;97145.19;4975369;28;20054;-49
2021/12/25 14:20:13;;;;;;;8.63;5.45;;;;;;;2.78;82.14;97150.72;4958277;28;20023;-48
2021/12/25 14:22:38;;;;;;;8.88;5.57;;;;;;;2.75;82.30;97156.06;4975995;28;20478;-51
2021/12/25 14:25:05;;;;;;;9.00;6.00;;;;;;;2.71;81.90;97159.72;4975770;28;20085;-49
2021/12/25 14:27:30;;;;;;;8.45;5.78;;;;;;;2.67;82.54;97160.81;4976115;28;20243;-50
2021/12/25 14:30:10;;;;;;;9.15;6.50;;;;;;;2.67;82.80;97163.41;4975403;28;20037;-51
2021/12/25 14:32:36;;;;;;;7.45;4.50;;;;;;;2.88;82.78;97156.22;4975371;28;20442;-51
2021/12/25 14:35:12;;;;;;;5.90;3.13;;;;;;;2.73;82.08;97169.09;4975512;28;20054;-51
2021/12/25 14:37:38;;;;;;;5.88;2.90;;;;;;;2.84;82.01;97165.91;4974445;28;20030;-50
2021/12/25 14:40:17;;;;;;;5.88;2.50;;;;;;;2.50;82.47;97172.88;4974971;28;20445;-49
2021/12/25 14:42:48;;;;;;;5.00;2.47;;;;;;;2.54;83.26;97164.03;4975478;28;20062;-48
2021/12/25 14:45:14;;;;;;;6.63;3.42;;;;;;;2.61;83.53;97175.78;4975152;28;20041;-51
2021/12/25 14:48:09;;;;;;;6.53;3.75;;;;;;;2.52;82.78;97178.84;4975250;28;20026;-49
2021/12/25 14:50:35;;;;;;;6.47;3.53;;;;;;;2.37;82.94;97183.06;4915631;29;20102;-50
2021/12/25 14:53:17;;;;;;;6.30;3.20;;;;;;;2.51;82.96;97190.13;4916025;29;20036;-48
2021/12/25 14:55:49;;;;;;;6.78;3.45;;;;;;;2.45;83.25;97187.84;4899829;29;20044;-49
2021/12/25 14:58:17;;;;;;;7.13;3.13;;;;;;;2.51;83.56;97192.72;4915661;29;20159;-51
2021/12/25 15:00:43;;;;;;;7.25;3.95;;;;;;;2.49;83.22;97185.94;4914961;29;20051;-52
2021/12/25 15:03:10;;;;;;;7.90;4.10;;;;;;;2.46;83.68;97191.25;4915761;29;20032;-52
2021/12/25 15:05:37;;;;;;;8.20;4.10;;;;;;;2.31;84.83;97185.13;4915713;29;20033;-51
2021/12/25 15:08:16;;;;;;;6.82;3.60;;;;;;;2.42;84.78;97195.75;4915446;29;20048;-53
2021/12/25 15:10:41;;;;;;;8.20;3.60;;;;;;;2.26;84.87;97190.53;4915396;29;20039;-51
2021/12/25 15:13:19;;;;;;;7.65;3.67;;;;;;;2.43;83.90;97197.41;4914837;29;20040;-52
2021/12/25 15:15:55;;;;;;;7.60;3.10;;;;;;;2.48;83.97;97210.13;4899894;29;20051;-52
2021/12/25 15:18:31;;;;;;;5.55;2.90;;;;;;;2.39;82.52;97203.69;4915581;29;20091;-49
2021/12/25 15:21:11;;;;;;;6.88;3.00;;;;;;;2.17;84.40;97210.84;4915364;29;20036;-50
2021/12/25 15:23:38;;;;;;;5.55;2.45;;;;;;;2.33;84.08;97211.75;4914775;29;20036;-48
2021/12/25 15:26:17;;;;;;;6.80;2.75;;;;;;;2.42;82.45;97215.63;4922615;28;20024;-55
2021/12/25 15:29:04;;;;;;;6.07;2.80;;;;;;;2.19;83.65;97214.22;4974942;28;20027;-48
2021/12/25 15:31:29;;;;;;;6.65;3.33;;;;;;;2.04;85.23;97226.19;4973448;28;20026;-49
2021/12/25 15:33:57;;;;;;;7.50;3.92;;;;;;;2.21;83.84;97222.75;4974127;28;20474;-51
2021/12/25 15:36:22;;;;;;;6.28;3.17;;;;;;;2.24;82.87;97222.59;4973448;28;20422;-52
2021/12/25 15:38:48;;;;;;;7.15;3.42;;;;;;;2.11;83.13;97225.78;4974893;28;20030;-53
2021/12/25 15:41:14;;;;;;;7.90;3.10;;;;;;;1.90;82.91;97224.28;4974950;28;20387;-50
2021/12/25 15:43:40;;;;;;;7.78;3.15;;;;;;;2.03;82.88;97224.47;4973890;28;20030;-48
2021/12/25 15:46:05;;;;;;;6.88;3.72;;;;;;;1.90;83.10;97229.44;4974362;28;20037;-52
2021/12/25 15:48:32;;;;;;;8.25;3.85;;;;;;;1.85;84.02;97221.88;4974378;28;20041;-51
2021/12/25 15:50:57;;;;;;;9.27;6.18;;;;;;;1.76;84.65;97230.13;4974197;28;20206;-51
2021/12/25 15:53:22;;;;;;;8.07;4.90;;;;;;;1.83;84.23;97238.41;4974243;28;20023;-48
2021/12/25 15:55:48;;;;;;;9.68;5.60;;;;;;;2.07;83.09;97233.78;4974104;28;20038;-48
2021/12/25 15:58:15;;;;;;;8.27;4.80;;;;;;;1.87;84.80;97234.75;4974119;28;20030;-51
2021/12/25 16:00:46;;;;;;;6.68;3.60;;;;;;;1.92;83.86;97237.13;4973711;28;20139;-53
2021/12/25 16:03:12;;;;;;;7.22;3.03;;;;;;;1.90;83.68;97234.63;4974158;28;20062;-46
2021/12/25 16:05:38;;;;;;;7.38;3.83;;;;;;;2.02;83.64;97243.50;4974064;28;20035;-49
2021/12/25 16:08:04;;;;;;;5.85;2.83;;;;;;;1.91;82.72;97241.44;4974108;28;20499;-52
2021/12/25 16:10:29;;;;;;;6.75;2.85;;;;;;;1.88;84.14;97242.44;4974181;28;20031;-48
2021/12/25 16:12:54;;;;;;;6.30;2.65;;;;;;;1.89;82.97;97238.09;4974192;28;20026;-51
2021/12/25 16:15:20;;;;;;;6.50;2.50;;;;;;;1.79;82.82;97244.63;4973451;28;20037;-50
2021/12/25 16:17:45;;;;;;;6.43;2.90;;;;;;;1.87;81.88;97251.13;4974065;28;20027;-49
2021/12/25 16:20:11;;;;;;;6.07;2.40;;;;;;;1.99;80.05;97247.06;4973923;28;20530;-49
2021/12/25 16:22:36;;;;;;;6.22;2.78;;;;;;;1.73;82.21;97239.78;4974352;28;20023;-48
2021/12/25 16:25:02;;;;;;;5.50;2.50;;;;;;;1.87;81.99;97245.09;4973951;28;20022;-50
2021/12/25 16:27:27;;;;;;;6.55;2.78;;;;;;;1.57;82.16;97242.25;4973541;28;20058;-49
2021/12/25 16:29:53;;;;;;;5.90;2.63;;;;;;;1.77;82.91;97243.88;4973674;28;20390;-49
2021/12/25 16:32:19;;;;;;;6.32;2.70;;;;;;;1.74;81.99;97249.19;4973003;28;20027;-48
2021/12/25 16:34:45;;;;;;;5.40;2.17;;;;;;;1.78;81.04;97248.13;4974113;28;20033;-48
2021/12/25 16:37:10;;;;;;;7.43;2.95;;;;;;;1.53;81.59;97251.91;4977692;28;20027;-49
2021/12/25 16:39:36;;;;;;;6.60;2.72;;;;;;;1.40;83.20;97255.97;4977752;28;20033;-49
2021/12/25 16:42:02;;;;;;;7.78;3.17;;;;;;;1.34;82.80;97256.25;4978430;28;20479;-49
2021/12/25 16:44:27;;;;;;;7.88;3.67;;;;;;;1.61;83.71;97260.09;4978071;28;20297;-50
2021/12/25 16:46:53;;;;;;;9.02;4.72;;;;;;;1.54;83.26;97258.72;4977566;28;20027;-51
2021/12/25 16:49:19;;;;;;;9.73;4.57;;;;;;;1.62;82.91;97258.38;4977802;28;20019;-50
2021/12/25 16:51:45;;;;;;;8.30;3.38;;;;;;;1.49;82.82;97271.03;4978089;28;20027;-51
2021/12/25 16:54:11;;;;;;;7.10;2.90;;;;;;;1.45;81.90;97264.34;4977256;28;20035;-51
2021/12/25 16:56:40;;;;;;;7.50;3.08;;;;;;;1.70;81.15;97274.34;4977998;28;20041;-53
2021/12/25 16:59:06;;;;;;;5.97;2.72;;;;;;;1.74;81.35;97273.28;4977425;28;20081;-49
2021/12/25 17:01:31;;;;;;;7.03;3.17;;;;;;;1.54;82.00;97268.22;4977722;28;20478;-48
2021/12/25 17:04:02;;;;;;;10.60;4.63;;;;;;;1.37;80.39;97269.84;4977446;28;20022;-49
2021/12/25 17:06:28;;;;;;;24.83;8.93;;;;;;;1.45;80.40;97269.53;4977391;28;20022;-51
2021/12/25 17:08:53;;;;;;;14.80;6.38;;;;;;;1.62;81.27;97277.31;4977008;28;20031;-50
2021/12/25 17:11:18;;;;;;;137.60;40.80;;;;;;;1.61;81.16;97275.63;4977350;28;20029;-50
2021/12/25 17:13:44;;;;;;;84.93;26.92;;;;;;;1.48;81.22;97274.56;4977522;28;20080;-52
2021/12/25 17:16:10;;;;;;;89.22;27.75;;;;;;;1.53;81.26;97280.31;4978119;28;20027;-48
2021/12/25 17:18:35;;;;;;;188.38;48.03;;;;;;;1.45;81.38;97287.59;4977932;28;20399;-51
2021/12/25 17:21:01;;;;;;;70.95;21.23;;;;;;;1.43;81.96;97282.50;4977114;28;20410;-49
2021/12/25 17:23:26;;;;;;;141.93;43.20;;;;;;;1.49;81.13;97286.56;4977210;28;20037;-48
2021/12/25 17:25:52;;;;;;;40.65;20.35;;;;;;;1.63;80.16;97278.97;4977238;28;20077;-52
2021/12/25 17:28:18;;;;;;;9.25;5.80;;;;;;;1.52;79.74;97286.41;4977651;28;20085;-49
2021/12/25 17:30:47;;;;;;;8.68;4.75;;;;;;;1.51;78.95;97295.06;4977336;28;20073;-50
2021/12/25 17:33:17;;;;;;;9.00;4.25;;;;;;;1.62;80.75;97295.41;4977579;28;20027;-51
2021/12/25 17:35:43;;;;;;;7.07;3.28;;;;;;;1.35;80.89;97286.34;4976158;28;20391;-50
2021/12/25 17:38:08;;;;;;;6.05;2.67;;;;;;;1.39;79.25;97293.06;4977542;28;20027;-51
2021/12/25 17:40:37;;;;;;;5.68;2.47;;;;;;;1.18;81.44;97293.13;4977032;28;20026;-51
2021/12/25 17:43:03;;;;;;;5.90;2.58;;;;;;;1.36;80.58;97293.19;4977664;28;20113;-49
2021/12/25 17:45:28;;;;;;;8.25;3.35;;;;;;;1.60;80.34;97293.78;4977013;28;20495;-48
2021/12/25 17:47:54;;;;;;;14.10;10.55;;;;;;;1.28;80.87;97292.72;4976752;28;20053;-48
2021/12/25 17:50:22;;;;;;;11.07;7.55;;;;;;;1.36;80.17;97296.59;4978503;28;20033;-52
2021/12/25 17:52:47;;;;;;;10.52;6.40;;;;;;;1.27;80.30;97301.34;4978684;28;20026;-54
2021/12/25 17:55:13;;;;;;;9.60;4.60;;;;;;;1.38;80.89;97299.13;4977610;28;20380;-48
2021/12/25 17:57:39;;;;;;;7.82;4.30;;;;;;;1.39;80.23;97309.41;4975432;28;20026;-52
2021/12/25 18:00:05;;;;;;;8.20;3.35;;;;;;;1.47;80.64;97314.19;4976733;28;20483;-52
2021/12/25 18:02:30;;;;;;;8.30;3.90;;;;;;;1.23;80.92;97312.75;4975817;28;20073;-51
2021/12/25 18:04:56;;;;;;;9.85;4.57;;;;;;;1.24;81.46;97309.25;4976727;28;20390;-49
2021/12/25 18:07:21;;;;;;;9.45;4.10;;;;;;;1.33;80.78;97304.50;4975607;28;20049;-48
2021/12/25 18:09:46;;;;;;;8.50;4.28;;;;;;;1.12;81.38;97308.06;4975422;28;20039;-50
2021/12/25 18:12:18;;;;;;;8.07;4.03;;;;;;;1.29;81.81;97307.31;4975053;28;20414;-48
2021/12/25 18:14:43;;;;;;;7.68;3.63;;;;;;;1.28;81.78;97308.22;4957103;28;20463;-50
2021/12/25 18:17:09;;;;;;;7.72;3.22;;;;;;;1.08;82.03;97307.38;4966236;28;20053;-52
2021/12/25 18:19:35;;;;;;;7.32;3.40;;;;;;;0.99;81.60;97307.75;4975849;28;20027;-50
2021/12/25 18:22:00;;;;;;;7.25;3.50;;;;;;;1.02;81.96;97312.78;4975776;28;20061;-48
2021/12/25 18:24:26;;;;;;;8.32;4.03;;;;;;;1.09;82.51;97319.38;4975493;28;20089;-49
2021/12/25 18:26:51;;;;;;;9.73;4.45;;;;;;;1.19;80.94;97310.28;4975683;28;20023;-53
2021/12/25 18:29:16;;;;;;;13.05;6.18;;;;;;;1.11;81.00;97312.41;4975729;28;20687;-49
2021/12/25 18:31:42;;;;;;;13.73;5.88;;;;;;;1.01;81.19;97313.72;4975536;28;20057;-49
2021/12/25 18:34:07;;;;;;;8.50;3.95;;;;;;;0.91;80.98;97315.84;4975140;28;20131;-50
2021/12/25 18:36:33;;;;;;;12.45;5.63;;;;;;;0.94;82.05;97322.63;4975432;28;20033;-49
2021/12/25 18:39:00;;;;;;;11.65;4.35;;;;;;;0.99;80.21;97327.59;4975410;28;20037;-50
2021/12/25 18:41:30;;;;;;;8.55;4.28;;;;;;;1.08;81.05;97317.69;4975664;28;20109;-49
2021/12/25 18:43:56;;;;;;;6.68;3.20;;;;;;;1.03;79.66;97319.63;4975233;28;20037;-51
2021/12/25 18:46:21;;;;;;;6.30;2.78;;;;;;;0.81;80.95;97317.16;4975328;28;20030;-51
2021/12/25 18:48:48;;;;;;;10.27;4.68;;;;;;;0.97;80.91;97317.34;4975628;28;20035;-51
2021/12/25 18:51:14;;;;;;;15.23;9.32;;;;;;;0.87;82.14;97310.91;4975721;28;20093;-49
2021/12/25 18:53:39;;;;;;;14.10;9.73;;;;;;;0.97;80.84;97314.75;4973250;28;20019;-49
2021/12/25 18:56:05;;;;;;;13.77;8.70;;;;;;;0.93;81.22;97321.81;4969146;28;20368;-48
2021/12/25 18:58:30;;;;;;;13.30;8.23;;;;;;;0.89;80.48;97317.66;4956592;28;20031;-47
2021/12/25 19:00:55;;;;;;;9.02;5.30;;;;;;;0.94;81.33;97314.88;4970704;28;20614;-48
2021/12/25 19:03:21;;;;;;;7.65;4.18;;;;;;;1.02;80.63;97306.78;4956730;29;20029;-48
2021/12/25 19:05:55;;;;;;;8.70;4.90;;;;;;;0.92;80.41;97319.28;4965539;28;20113;-50
2021/12/25 19:08:20;;;;;;;11.52;7.38;;;;;;;0.73;83.17;97321.00;4965265;28;20037;-49
2021/12/25 19:10:46;;;;;;;8.88;4.40;;;;;;;0.75;81.10;97319.16;4974530;28;20027;-51
2021/12/25 19:13:13;;;;;;;9.48;4.35;;;;;;;0.90;79.48;97324.50;4956310;28;20031;-48
2021/12/25 19:15:38;;;;;;;7.60;3.65;;;;;;;0.84;80.00;97331.69;4960740;28;20038;-50
2021/12/25 19:18:04;;;;;;;8.13;3.10;;;;;;;0.70;81.25;97334.88;4975342;28;20038;-51
2021/12/25 19:20:29;;;;;;;8.60;3.60;;;;;;;1.13;79.97;97330.41;4975966;28;20109;-48
2021/12/25 19:22:56;;;;;;;7.20;2.97;;;;;;;1.02;80.75;97328.28;4977184;28;20105;-50
2021/12/25 19:25:21;;;;;;;8.50;3.17;;;;;;;0.97;79.60;97330.25;4977045;28;20030;-50
2021/12/25 19:27:47;;;;;;;6.10;3.10;;;;;;;0.99;79.47;97333.59;4976791;28;20035;-49
2021/12/25 19:30:15;;;;;;;12.82;4.70;;;;;;;0.98;79.32;97337.09;4976950;28;20031;-49
2021/12/25 19:32:41;;;;;;;8.93;3.88;;;;;;;0.91;78.43;97341.69;4977520;28;20081;-49
2021/12/25 19:35:07;;;;;;;6.70;2.72;;;;;;;0.67;79.70;97348.72;4975983;28;20023;-49
2021/12/25 19:37:32;;;;;;;4.97;2.35;;;;;;;0.79;80.09;97346.53;4976450;28;20054;-50
2021/12/25 19:39:59;;;;;;;7.53;3.08;;;;;;;0.63;79.26;97348.94;4976507;28;20074;-47
2021/12/25 19:42:24;;;;;;;7.95;4.18;;;;;;;0.92;80.13;97342.50;4976216;28;20022;-47
2021/12/25 19:44:53;;;;;;;8.80;3.80;;;;;;;0.77;79.46;97349.19;4969832;28;20378;-49
2021/12/25 19:47:18;;;;;;;6.43;3.00;;;;;;;0.89;79.34;97347.81;4971286;28;20027;-50
2021/12/25 19:49:44;;;;;;;6.53;2.60;;;;;;;0.74;79.59;97338.97;4958509;28;20038;-50
2021/12/25 19:52:10;;;;;;;6.25;2.40;;;;;;;0.91;79.65;97356.34;4974747;28;20035;-54
2021/12/25 19:54:35;;;;;;;6.50;2.35;;;;;;;0.81;80.12;97355.06;4976332;28;20042;-51
2021/12/25 19:57:01;;;;;;;5.95;2.60;;;;;;;0.68;79.32;97350.41;4976344;28;20027;-51
2021/12/25 19:59:27;;;;;;;6.13;3.00;;;;;;;0.68;80.79;97350.41;4976582;28;20125;-49
2021/12/25 20:01:53;;;;;;;6.25;2.70;;;;;;;0.90;79.62;97336.59;4976986;28;20041;-51
2021/12/25 20:04:19;;;;;;;6.13;2.42;;;;;;;1.07;78.98;97336.69;4976670;28;20041;-50
2021/12/25 20:06:44;;;;;;;41.08;14.70;;;;;;;0.83;80.42;97333.44;4975622;28;20026;-50
2021/12/25 20:09:09;;;;;;;123.00;34.47;;;;;;;0.78;79.28;97345.69;4975795;28;20034;-51
2021/12/25 20:11:35;;;;;;;26.85;9.57;;;;;;;0.77;78.31;97343.19;4976732;28;20027;-49
2021/12/25 20:14:00;;;;;;;7.18;3.83;;;;;;;0.54;78.62;97345.00;4976038;28;20045;-52
2021/12/25 20:16:26;;;;;;;8.18;4.03;;;;;;;0.74;80.08;97348.47;4976663;28;20022;-48
2021/12/25 20:18:52;;;;;;;7.00;2.80;;;;;;;0.75;79.64;97350.16;4976120;28;20081;-50
2021/12/25 20:21:18;;;;;;;7.38;3.85;;;;;;;0.78;81.42;97350.84;4976125;28;20030;-51
2021/12/25 20:23:45;;;;;;;8.27;4.13;;;;;;;0.60;79.96;97341.31;4975904;28;20086;-49
2021/12/25 20:26:10;;;;;;;6.80;3.40;;;;;;;0.68;79.96;97340.06;4976992;28;20098;-48
2021/12/25 20:28:37;;;;;;;7.45;3.80;;;;;;;0.80;79.73;97341.31;4976583;28;20027;-48
2021/12/25 20:31:03;;;;;;;7.55;3.45;;;;;;;0.97;79.84;97330.25;4977224;28;20058;-51
2021/12/25 20:33:29;;;;;;;7.35;2.97;;;;;;;1.04;80.22;97326.50;4977561;28;20042;-50
2021/12/25 20:35:54;;;;;;;8.55;4.38;;;;;;;0.82;79.75;97325.75;4976500;28;20038;-53
2021/12/25 20:38:20;;;;;;;7.32;3.55;;;;;;;0.80;79.75;97331.00;4976632;28;20022;-48
2021/12/25 20:40:46;;;;;;;7.95;3.60;;;;;;;0.73;80.07;97328.75;4975144;28;20023;-48
2021/12/25 20:43:14;;;;;;;8.38;3.17;;;;;;;0.67;79.89;97320.34;4977333;28;20030;-47
2021/12/25 20:45:45;;;;;;;8.23;3.83;;;;;;;0.82;80.36;97318.84;4977423;28;20019;-48
2021/12/25 20:48:12;;;;;;;7.40;3.70;;;;;;;0.75;79.58;97316.59;4977575;28;20222;-49
2021/12/25 20:50:37;;;;;;;7.30;3.15;;;;;;;0.74;80.30;97327.81;4975923;28;20085;-49
2021/12/25 20:53:03;;;;;;;7.95;3.83;;;;;;;0.73;79.44;97321.00;4977392;28;20030;-48
2021/12/25 20:55:28;;;;;;;24.25;11.68;;;;;;;0.83;80.49;97327.44;4976300;28;20031;-49
2021/12/25 20:57:54;;;;;;;13.40;7.57;;;;;;;0.79;79.57;97325.88;4977662;28;20034;-48
2021/12/25 21:00:20;;;;;;;8.70;4.10;;;;;;;0.90;78.83;97334.00;4961070;28;20062;-52
2021/12/25 21:02:45;;;;;;;10.63;5.50;;;;;;;0.79;79.99;97339.63;4919627;29;20443;-51
2021/12/25 21:05:13;;;;;;;8.55;4.18;;;;;;;0.77;78.99;97338.84;4920564;29;20024;-49
2021/12/25 21:07:40;;;;;;;7.35;3.40;;;;;;;0.77;78.17;97343.19;4919696;29;20036;-49
2021/12/25 21:10:06;;;;;;;8.18;4.20;;;;;;;0.79;79.27;97324.16;4919522;29;20481;-52
2021/12/25 21:12:32;;;;;;;9.50;4.82;;;;;;;0.81;79.79;97329.25;4918214;29;20126;-50
2021/12/25 21:14:57;;;;;;;9.05;4.25;;;;;;;0.71;80.96;97333.94;4918904;29;20086;-50
2021/12/25 21:17:24;;;;;;;7.68;3.60;;;;;;;0.89;79.29;97332.31;4919718;29;20028;-53
2021/12/25 21:19:50;;;;;;;7.55;3.75;;;;;;;0.88;79.41;97330.66;4919630;29;20036;-49
2021/12/25 21:22:15;;;;;;;8.88;3.53;;;;;;;0.84;78.79;97334.28;4924181;29;20020;-53
2021/12/25 21:24:40;;;;;;;8.40;2.95;;;;;;;0.62;78.30;97337.78;4922809;29;20063;-50
2021/12/25 21:27:06;;;;;;;8.15;3.15;;;;;;;0.82;79.35;97334.31;4924380;29;20043;-50
2021/12/25 21:29:31;;;;;;;7.95;3.00;;;;;;;0.78;81.53;97342.28;4933480;29;20028;-51
2021/12/25 21:31:57;;;;;;;7.63;3.22;;;;;;;0.71;81.70;97345.09;4923201;29;20050;-54
2021/12/25 21:34:22;;;;;;;8.65;3.42;;;;;;;0.84;81.40;97342.00;4919652;29;20027;-50
2021/12/25 21:36:48;;;;;;;7.00;3.03;;;;;;;0.78;79.27;97344.84;4921614;29;20036;-49
2021/12/25 21:39:14;;;;;;;7.65;3.17;;;;;;;0.73;79.27;97342.47;4918048;29;20036;-51
2021/12/25 21:41:39;;;;;;;6.50;2.88;;;;;;;0.86;80.56;97337.59;4922323;29;20032;-53
2021/12/25 21:44:05;;;;;;;6.50;2.65;;;;;;;0.91;79.51;97348.59;4922223;29;20028;-53
2021/12/25 21:46:30;;;;;;;6.88;3.22;;;;;;;0.80;79.65;97348.22;4922544;29;20417;-52
2021/12/25 21:48:55;;;;;;;5.90;2.95;;;;;;;0.84;80.25;97352.34;4922122;29;20032;-49
2021/12/25 21:51:21;;;;;;;12.40;6.57;;;;;;;0.83;79.34;97356.66;4921033;29;20047;-48
2021/12/25 21:53:46;;;;;;;12.13;5.97;;;;;;;1.00;78.67;97348.19;4922467;29;20024;-52
2021/12/25 21:56:12;;;;;;;8.85;4.60;;;;;;;0.94;79.54;97349.28;4918208;29;20039;-49
2021/12/25 21:58:40;;;;;;;8.68;3.80;;;;;;;1.02;78.69;97350.69;4919064;29;20025;-48
2021/12/25 22:01:06;;;;;;;7.25;3.08;;;;;;;0.68;79.40;97350.41;4922466;29;20038;-49
2021/12/25 22:03:31;;;;;;;9.48;4.10;;;;;;;0.76;79.58;97349.22;4922032;29;20028;-51
2021/12/25 22:05:57;;;;;;;7.25;3.33;;;;;;;0.74;79.03;97353.63;4922249;29;20051;-49
2021/12/25 22:08:27;;;;;;;7.80;3.47;;;;;;;0.70;80.35;97350.34;4922380;29;20028;-49
2021/12/25 22:10:52;;;;;;;9.55;4.18;;;;;;;0.78;79.46;97350.84;4922275;29;20060;-51
2021/12/25 22:13:18;;;;;;;11.02;5.97;;;;;;;0.60;80.68;97357.63;4924841;29;20039;-52
2021/12/25 22:15:45;;;;;;;15.20;9.10;;;;;;;0.67;79.95;97358.22;4921888;29;20032;-52
2021/12/25 22:18:11;;;;;;;12.40;8.70;;;;;;;0.73;80.59;97344.22;4922254;29;20024;-49
2021/12/25 22:20:36;;;;;;;10.93;6.85;;;;;;;0.76;81.04;97339.78;4921786;29;20043;-50
2021/12/25 22:23:02;;;;;;;11.45;5.68;;;;;;;0.68;80.48;97345.25;4921652;29;20038;-52
2021/12/25 22:25:28;;;;;;;8.48;4.05;;;;;;;0.74;79.05;97338.16;4919472;29;20685;-51
2021/12/25 22:27:53;;;;;;;10.43;5.28;;;;;;;0.65;79.52;97344.53;4921757;29;20024;-50
2021/12/25 22:30:23;;;;;;;11.55;6.32;;;;;;;0.76;80.08;97328.56;4921652;29;20036;-51
2021/12/25 22:32:49;;;;;;;8.45;4.03;;;;;;;0.89;79.79;97334.91;4919923;29;20087;-50
2021/12/25 22:35:14;;;;;;;8.75;4.00;;;;;;;0.84;79.29;97335.09;4924722;29;20508;-51
2021/12/25 22:37:40;;;;;;;10.23;4.53;;;;;;;0.78;79.81;97345.69;4921862;29;20507;-52
2021/12/25 22:40:06;;;;;;;9.25;4.07;;;;;;;0.86;79.57;97350.50;4921597;29;20039;-49
2021/12/25 22:42:31;;;;;;;11.63;6.05;;;;;;;0.90;79.03;97344.34;4922072;29;20496;-50